sensor_id;sensor_type;location;lat;lon;timestamp;P1;durP1;ratioP1;P2;durP2;ratioP2
22967;SDS011;11650;48.106;-1.696;2023-05-27T00:01:02;25.47;;;7.80;;
22967;SDS011;11650;48.106;-1.696;2023-05-27T00:03:28;31.30;;;7.73;;
22967;SDS011;11650;48.106;-1.696;2023-05-27T00:05:54;30.47;;;7.53;;
22967;SDS011;11650;48.106;-1.696;2023-05-27T00:08:19;27.37;;;7.00;;
22967;SDS011;11650;48.106;-1.696;2023-05-27T00:10:45;26.63;;;7.37;;
22967;SDS011;11650;48.106;-1.696;2023-05-27T00:13:12;30.77;;;8.47;;
22967;SDS011;11650;48.106;-1.696;2023-05-27T00:15:38;34.20;;;7.30;;
22967;SDS011;11650;48.106;-1.696;2023-05-27T00:18:05;31.13;;;7.57;;
22967;SDS011;11650;48.106;-1.696;2023-05-27T00:20:31;28.87;;;7.13;;
22967;SDS011;11650;48.106;-1.696;2023-05-27T00:22:57;32.23;;;7.40;;
22967;SDS011;11650;48.106;-1.696;2023-05-27T00:25:25;29.50;;;7.53;;
22967;SDS011;11650;48.106;-1.696;2023-05-27T00:27:51;30.03;;;7.50;;
22967;SDS011;11650;48.106;-1.696;2023-05-27T00:30:16;33.93;;;7.73;;
22967;SDS011;11650;48.106;-1.696;2023-05-27T00:32:42;26.33;;;7.40;;
22967;SDS011;11650;48.106;-1.696;2023-05-27T00:35:08;28.13;;;7.33;;
22967;SDS011;11650;48.106;-1.696;2023-05-27T00:37:34;33.73;;;7.70;;
22967;SDS011;11650;48.106;-1.696;2023-05-27T00:40:00;27.63;;;7.17;;
22967;SDS011;11650;48.106;-1.696;2023-05-27T00:42:25;30.93;;;7.60;;
22967;SDS011;11650;48.106;-1.696;2023-05-27T00:44:51;29.10;;;7.30;;
22967;SDS011;11650;48.106;-1.696;2023-05-27T00:47:17;35.03;;;8.00;;
22967;SDS011;11650;48.106;-1.696;2023-05-27T00:49:43;33.73;;;7.20;;
22967;SDS011;11650;48.106;-1.696;2023-05-27T00:52:10;28.20;;;7.30;;
22967;SDS011;11650;48.106;-1.696;2023-05-27T00:54:38;34.53;;;7.40;;
22967;SDS011;11650;48.106;-1.696;2023-05-27T00:57:05;29.87;;;7.50;;
22967;SDS011;11650;48.106;-1.696;2023-05-27T00:59:31;30.17;;;7.30;;
22967;SDS011;11650;48.106;-1.696;2023-05-27T01:01:56;29.93;;;7.50;;
22967;SDS011;11650;48.106;-1.696;2023-05-27T01:04:22;30.47;;;7.10;;
22967;SDS011;11650;48.106;-1.696;2023-05-27T01:14:56;30.30;;;7.93;;
22967;SDS011;11650;48.106;-1.696;2023-05-27T01:17:23;25.57;;;6.40;;
22967;SDS011;11650;48.106;-1.696;2023-05-27T01:19:51;28.93;;;7.43;;
22967;SDS011;11650;48.106;-1.696;2023-05-27T01:22:18;25.47;;;7.33;;
22967;SDS011;11650;48.106;-1.696;2023-05-27T01:24:47;31.20;;;7.97;;
22967;SDS011;11650;48.106;-1.696;2023-05-27T01:27:14;27.73;;;7.17;;
22967;SDS011;11650;48.106;-1.696;2023-05-27T01:29:42;31.53;;;7.57;;
22967;SDS011;11650;48.106;-1.696;2023-05-27T01:32:16;29.67;;;7.50;;
22967;SDS011;11650;48.106;-1.696;2023-05-27T01:34:47;32.77;;;7.63;;
22967;SDS011;11650;48.106;-1.696;2023-05-27T01:37:20;25.53;;;6.57;;
22967;SDS011;11650;48.106;-1.696;2023-05-27T01:39:49;27.70;;;7.60;;
22967;SDS011;11650;48.106;-1.696;2023-05-27T01:42:16;30.97;;;8.13;;
22967;SDS011;11650;48.106;-1.696;2023-05-27T01:44:42;32.93;;;7.47;;
22967;SDS011;11650;48.106;-1.696;2023-05-27T01:47:08;32.17;;;6.90;;
22967;SDS011;11650;48.106;-1.696;2023-05-27T01:49:34;35.17;;;8.03;;
22967;SDS011;11650;48.106;-1.696;2023-05-27T01:52:00;30.47;;;7.70;;
22967;SDS011;11650;48.106;-1.696;2023-05-27T01:54:26;28.23;;;7.60;;
22967;SDS011;11650;48.106;-1.696;2023-05-27T01:56:52;31.23;;;8.00;;
22967;SDS011;11650;48.106;-1.696;2023-05-27T01:59:17;31.20;;;7.70;;
22967;SDS011;11650;48.106;-1.696;2023-05-27T02:01:43;32.43;;;7.77;;
22967;SDS011;11650;48.106;-1.696;2023-05-27T02:04:09;31.07;;;8.00;;
22967;SDS011;11650;48.106;-1.696;2023-05-27T02:06:35;24.63;;;7.10;;
22967;SDS011;11650;48.106;-1.696;2023-05-27T02:09:01;36.40;;;7.60;;
22967;SDS011;11650;48.106;-1.696;2023-05-27T02:11:27;33.13;;;7.80;;
22967;SDS011;11650;48.106;-1.696;2023-05-27T02:13:53;35.37;;;7.70;;
22967;SDS011;11650;48.106;-1.696;2023-05-27T02:16:18;28.03;;;7.33;;
22967;SDS011;11650;48.106;-1.696;2023-05-27T02:18:47;31.37;;;7.57;;
22967;SDS011;11650;48.106;-1.696;2023-05-27T02:21:16;37.17;;;8.30;;
22967;SDS011;11650;48.106;-1.696;2023-05-27T02:23:42;31.80;;;7.83;;
22967;SDS011;11650;48.106;-1.696;2023-05-27T02:26:07;29.07;;;8.23;;
22967;SDS011;11650;48.106;-1.696;2023-05-27T02:28:33;37.17;;;7.80;;
22967;SDS011;11650;48.106;-1.696;2023-05-27T02:30:59;37.87;;;8.17;;
22967;SDS011;11650;48.106;-1.696;2023-05-27T02:33:25;30.73;;;7.77;;
22967;SDS011;11650;48.106;-1.696;2023-05-27T02:35:51;30.67;;;8.10;;
22967;SDS011;11650;48.106;-1.696;2023-05-27T02:38:16;30.23;;;7.90;;
22967;SDS011;11650;48.106;-1.696;2023-05-27T02:40:42;33.97;;;8.50;;
22967;SDS011;11650;48.106;-1.696;2023-05-27T02:43:08;28.63;;;7.70;;
22967;SDS011;11650;48.106;-1.696;2023-05-27T02:45:33;31.57;;;7.93;;
22967;SDS011;11650;48.106;-1.696;2023-05-27T02:47:59;34.03;;;8.23;;
22967;SDS011;11650;48.106;-1.696;2023-05-27T02:50:26;34.30;;;8.03;;
22967;SDS011;11650;48.106;-1.696;2023-05-27T02:52:52;31.77;;;8.13;;
22967;SDS011;11650;48.106;-1.696;2023-05-27T02:55:18;34.37;;;8.40;;
22967;SDS011;11650;48.106;-1.696;2023-05-27T02:57:43;30.33;;;8.13;;
22967;SDS011;11650;48.106;-1.696;2023-05-27T03:00:10;35.00;;;8.33;;
22967;SDS011;11650;48.106;-1.696;2023-05-27T03:02:37;31.63;;;8.50;;
22967;SDS011;11650;48.106;-1.696;2023-05-27T03:05:03;36.37;;;8.20;;
22967;SDS011;11650;48.106;-1.696;2023-05-27T03:07:29;35.13;;;8.77;;
22967;SDS011;11650;48.106;-1.696;2023-05-27T03:09:55;31.77;;;8.13;;
22967;SDS011;11650;48.106;-1.696;2023-05-27T03:12:21;31.60;;;8.90;;
22967;SDS011;11650;48.106;-1.696;2023-05-27T03:14:48;35.33;;;8.87;;
22967;SDS011;11650;48.106;-1.696;2023-05-27T03:17:14;29.93;;;8.10;;
22967;SDS011;11650;48.106;-1.696;2023-05-27T03:19:40;30.17;;;8.17;;
22967;SDS011;11650;48.106;-1.696;2023-05-27T03:22:08;40.40;;;9.63;;
22967;SDS011;11650;48.106;-1.696;2023-05-27T03:24:34;30.27;;;8.30;;
22967;SDS011;11650;48.106;-1.696;2023-05-27T03:27:00;32.20;;;8.33;;
22967;SDS011;11650;48.106;-1.696;2023-05-27T03:29:26;28.97;;;7.90;;
22967;SDS011;11650;48.106;-1.696;2023-05-27T03:31:52;28.40;;;8.10;;
22967;SDS011;11650;48.106;-1.696;2023-05-27T03:34:18;29.03;;;8.77;;
22967;SDS011;11650;48.106;-1.696;2023-05-27T03:36:43;34.93;;;8.27;;
22967;SDS011;11650;48.106;-1.696;2023-05-27T03:39:11;34.27;;;8.07;;
22967;SDS011;11650;48.106;-1.696;2023-05-27T03:41:40;29.53;;;8.00;;
22967;SDS011;11650;48.106;-1.696;2023-05-27T03:44:06;30.77;;;7.90;;
22967;SDS011;11650;48.106;-1.696;2023-05-27T03:46:32;31.03;;;8.83;;
22967;SDS011;11650;48.106;-1.696;2023-05-27T03:48:58;32.77;;;7.83;;
22967;SDS011;11650;48.106;-1.696;2023-05-27T03:51:23;27.33;;;7.80;;
22967;SDS011;11650;48.106;-1.696;2023-05-27T03:53:49;33.80;;;7.90;;
22967;SDS011;11650;48.106;-1.696;2023-05-27T03:56:15;34.97;;;8.27;;
22967;SDS011;11650;48.106;-1.696;2023-05-27T03:58:41;36.10;;;8.67;;
22967;SDS011;11650;48.106;-1.696;2023-05-27T04:01:07;33.03;;;7.90;;
22967;SDS011;11650;48.106;-1.696;2023-05-27T04:03:33;25.70;;;7.70;;
22967;SDS011;11650;48.106;-1.696;2023-05-27T04:05:59;30.23;;;8.07;;
22967;SDS011;11650;48.106;-1.696;2023-05-27T04:08:24;27.30;;;8.07;;
22967;SDS011;11650;48.106;-1.696;2023-05-27T04:10:53;37.10;;;9.03;;
22967;SDS011;11650;48.106;-1.696;2023-05-27T04:13:20;33.17;;;8.13;;
22967;SDS011;11650;48.106;-1.696;2023-05-27T04:15:46;30.23;;;8.07;;
22967;SDS011;11650;48.106;-1.696;2023-05-27T04:18:12;32.70;;;7.80;;
22967;SDS011;11650;48.106;-1.696;2023-05-27T04:20:38;26.43;;;7.37;;
22967;SDS011;11650;48.106;-1.696;2023-05-27T04:23:09;30.20;;;8.17;;
22967;SDS011;11650;48.106;-1.696;2023-05-27T04:25:35;28.27;;;7.50;;
22967;SDS011;11650;48.106;-1.696;2023-05-27T04:28:02;34.83;;;7.90;;
22967;SDS011;11650;48.106;-1.696;2023-05-27T04:30:31;31.03;;;8.83;;
22967;SDS011;11650;48.106;-1.696;2023-05-27T04:32:58;31.40;;;8.30;;
22967;SDS011;11650;48.106;-1.696;2023-05-27T04:35:27;39.40;;;8.40;;
22967;SDS011;11650;48.106;-1.696;2023-05-27T04:37:56;26.87;;;7.53;;
22967;SDS011;11650;48.106;-1.696;2023-05-27T04:40:23;31.00;;;7.53;;
22967;SDS011;11650;48.106;-1.696;2023-05-27T04:42:49;29.13;;;7.97;;
22967;SDS011;11650;48.106;-1.696;2023-05-27T04:45:15;23.97;;;7.33;;
22967;SDS011;11650;48.106;-1.696;2023-05-27T04:47:41;27.70;;;7.67;;
22967;SDS011;11650;48.106;-1.696;2023-05-27T04:50:07;31.77;;;8.13;;
22967;SDS011;11650;48.106;-1.696;2023-05-27T04:52:33;30.50;;;7.40;;
22967;SDS011;11650;48.106;-1.696;2023-05-27T04:55:07;26.67;;;7.67;;
22967;SDS011;11650;48.106;-1.696;2023-05-27T04:57:34;28.27;;;7.87;;
22967;SDS011;11650;48.106;-1.696;2023-05-27T05:00:01;32.53;;;8.10;;
22967;SDS011;11650;48.106;-1.696;2023-05-27T05:02:30;30.77;;;8.17;;
22967;SDS011;11650;48.106;-1.696;2023-05-27T05:05:07;30.07;;;8.07;;
22967;SDS011;11650;48.106;-1.696;2023-05-27T05:07:33;30.03;;;8.57;;
22967;SDS011;11650;48.106;-1.696;2023-05-27T05:10:03;32.30;;;8.13;;
22967;SDS011;11650;48.106;-1.696;2023-05-27T05:12:30;28.00;;;7.50;;
22967;SDS011;11650;48.106;-1.696;2023-05-27T05:14:56;27.20;;;7.87;;
22967;SDS011;11650;48.106;-1.696;2023-05-27T05:17:22;31.80;;;7.77;;
22967;SDS011;11650;48.106;-1.696;2023-05-27T05:19:49;28.77;;;7.47;;
22967;SDS011;11650;48.106;-1.696;2023-05-27T05:22:16;23.50;;;7.37;;
22967;SDS011;11650;48.106;-1.696;2023-05-27T05:24:46;34.57;;;8.13;;
22967;SDS011;11650;48.106;-1.696;2023-05-27T05:27:12;25.87;;;7.70;;
22967;SDS011;11650;48.106;-1.696;2023-05-27T05:29:38;29.77;;;8.00;;
22967;SDS011;11650;48.106;-1.696;2023-05-27T05:32:04;29.97;;;7.77;;
22967;SDS011;11650;48.106;-1.696;2023-05-27T05:34:30;29.10;;;7.77;;
22967;SDS011;11650;48.106;-1.696;2023-05-27T05:36:56;29.47;;;8.33;;
22967;SDS011;11650;48.106;-1.696;2023-05-27T05:39:21;25.53;;;7.97;;
22967;SDS011;11650;48.106;-1.696;2023-05-27T05:41:47;31.97;;;7.83;;
22967;SDS011;11650;48.106;-1.696;2023-05-27T05:44:13;27.93;;;7.83;;
22967;SDS011;11650;48.106;-1.696;2023-05-27T05:46:40;27.20;;;7.87;;
22967;SDS011;11650;48.106;-1.696;2023-05-27T05:49:05;27.13;;;7.60;;
22967;SDS011;11650;48.106;-1.696;2023-05-27T05:51:31;25.33;;;7.47;;
22967;SDS011;11650;48.106;-1.696;2023-05-27T05:53:57;34.43;;;8.27;;
22967;SDS011;11650;48.106;-1.696;2023-05-27T05:56:23;26.80;;;7.53;;
22967;SDS011;11650;48.106;-1.696;2023-05-27T05:58:50;29.23;;;8.07;;
22967;SDS011;11650;48.106;-1.696;2023-05-27T06:01:16;27.03;;;7.67;;
22967;SDS011;11650;48.106;-1.696;2023-05-27T06:03:42;23.43;;;7.63;;
22967;SDS011;11650;48.106;-1.696;2023-05-27T06:06:08;32.83;;;8.67;;
22967;SDS011;11650;48.106;-1.696;2023-05-27T06:08:34;33.23;;;7.97;;
22967;SDS011;11650;48.106;-1.696;2023-05-27T06:10:59;29.43;;;7.73;;
22967;SDS011;11650;48.106;-1.696;2023-05-27T06:13:25;25.60;;;7.57;;
22967;SDS011;11650;48.106;-1.696;2023-05-27T06:15:51;29.43;;;7.57;;
22967;SDS011;11650;48.106;-1.696;2023-05-27T06:18:16;29.10;;;7.73;;
22967;SDS011;11650;48.106;-1.696;2023-05-27T06:20:43;29.60;;;7.73;;
22967;SDS011;11650;48.106;-1.696;2023-05-27T06:23:08;28.30;;;8.30;;
22967;SDS011;11650;48.106;-1.696;2023-05-27T06:25:34;26.83;;;7.57;;
22967;SDS011;11650;48.106;-1.696;2023-05-27T06:28:00;31.63;;;7.80;;
22967;SDS011;11650;48.106;-1.696;2023-05-27T06:30:26;30.83;;;7.67;;
22967;SDS011;11650;48.106;-1.696;2023-05-27T06:32:52;30.07;;;7.80;;
22967;SDS011;11650;48.106;-1.696;2023-05-27T06:35:17;29.03;;;7.93;;
22967;SDS011;11650;48.106;-1.696;2023-05-27T06:37:43;33.00;;;7.93;;
22967;SDS011;11650;48.106;-1.696;2023-05-27T06:40:09;27.20;;;7.80;;
22967;SDS011;11650;48.106;-1.696;2023-05-27T06:42:36;26.90;;;7.47;;
22967;SDS011;11650;48.106;-1.696;2023-05-27T06:45:02;27.87;;;7.53;;
22967;SDS011;11650;48.106;-1.696;2023-05-27T06:47:28;34.67;;;8.40;;
22967;SDS011;11650;48.106;-1.696;2023-05-27T06:49:53;25.87;;;7.87;;
22967;SDS011;11650;48.106;-1.696;2023-05-27T06:52:19;33.87;;;8.17;;
22967;SDS011;11650;48.106;-1.696;2023-05-27T06:54:45;21.93;;;7.50;;
22967;SDS011;11650;48.106;-1.696;2023-05-27T06:57:12;24.70;;;7.13;;
22967;SDS011;11650;48.106;-1.696;2023-05-27T06:59:38;30.70;;;8.13;;
22967;SDS011;11650;48.106;-1.696;2023-05-27T07:02:05;25.53;;;7.00;;
22967;SDS011;11650;48.106;-1.696;2023-05-27T07:04:31;26.80;;;7.97;;
22967;SDS011;11650;48.106;-1.696;2023-05-27T07:06:58;27.27;;;7.60;;
22967;SDS011;11650;48.106;-1.696;2023-05-27T07:09:23;19.97;;;6.70;;
22967;SDS011;11650;48.106;-1.696;2023-05-27T07:11:49;25.60;;;7.83;;
22967;SDS011;11650;48.106;-1.696;2023-05-27T07:14:15;24.90;;;6.87;;
22967;SDS011;11650;48.106;-1.696;2023-05-27T07:16:40;25.20;;;6.93;;
22967;SDS011;11650;48.106;-1.696;2023-05-27T07:19:06;24.43;;;7.30;;
22967;SDS011;11650;48.106;-1.696;2023-05-27T07:21:32;23.80;;;7.87;;
22967;SDS011;11650;48.106;-1.696;2023-05-27T07:23:57;29.20;;;7.33;;
22967;SDS011;11650;48.106;-1.696;2023-05-27T07:26:27;25.53;;;6.93;;
22967;SDS011;11650;48.106;-1.696;2023-05-27T07:28:54;25.83;;;7.73;;
22967;SDS011;11650;48.106;-1.696;2023-05-27T07:31:21;28.77;;;7.50;;
22967;SDS011;11650;48.106;-1.696;2023-05-27T07:33:47;22.07;;;7.33;;
22967;SDS011;11650;48.106;-1.696;2023-05-27T07:36:13;22.37;;;7.00;;
22967;SDS011;11650;48.106;-1.696;2023-05-27T07:38:38;26.37;;;7.10;;
22967;SDS011;11650;48.106;-1.696;2023-05-27T07:41:04;28.27;;;6.97;;
22967;SDS011;11650;48.106;-1.696;2023-05-27T07:43:29;25.97;;;7.27;;
22967;SDS011;11650;48.106;-1.696;2023-05-27T07:45:55;25.10;;;7.47;;
22967;SDS011;11650;48.106;-1.696;2023-05-27T07:48:21;22.53;;;6.90;;
22967;SDS011;11650;48.106;-1.696;2023-05-27T07:50:46;25.80;;;7.80;;
22967;SDS011;11650;48.106;-1.696;2023-05-27T07:53:12;20.40;;;6.43;;
22967;SDS011;11650;48.106;-1.696;2023-05-27T07:55:37;21.90;;;6.80;;
22967;SDS011;11650;48.106;-1.696;2023-05-27T07:58:03;25.30;;;7.40;;
22967;SDS011;11650;48.106;-1.696;2023-05-27T08:00:29;25.17;;;7.23;;
22967;SDS011;11650;48.106;-1.696;2023-05-27T08:02:55;21.60;;;7.17;;
22967;SDS011;11650;48.106;-1.696;2023-05-27T08:05:21;23.70;;;6.97;;
22967;SDS011;11650;48.106;-1.696;2023-05-27T08:07:46;24.20;;;7.03;;
22967;SDS011;11650;48.106;-1.696;2023-05-27T08:10:12;22.70;;;7.10;;
22967;SDS011;11650;48.106;-1.696;2023-05-27T08:12:38;27.30;;;7.70;;
22967;SDS011;11650;48.106;-1.696;2023-05-27T08:15:03;25.53;;;7.20;;
22967;SDS011;11650;48.106;-1.696;2023-05-27T08:17:30;27.50;;;7.67;;
22967;SDS011;11650;48.106;-1.696;2023-05-27T08:19:56;23.97;;;7.30;;
22967;SDS011;11650;48.106;-1.696;2023-05-27T08:22:21;25.73;;;7.40;;
22967;SDS011;11650;48.106;-1.696;2023-05-27T08:24:47;21.53;;;6.50;;
22967;SDS011;11650;48.106;-1.696;2023-05-27T08:27:14;22.43;;;7.20;;
22967;SDS011;11650;48.106;-1.696;2023-05-27T08:29:41;24.23;;;7.07;;
22967;SDS011;11650;48.106;-1.696;2023-05-27T08:32:07;25.40;;;6.97;;
22967;SDS011;11650;48.106;-1.696;2023-05-27T08:34:32;25.20;;;7.70;;
22967;SDS011;11650;48.106;-1.696;2023-05-27T08:36:58;30.43;;;7.37;;
22967;SDS011;11650;48.106;-1.696;2023-05-27T08:39:25;25.40;;;7.10;;
22967;SDS011;11650;48.106;-1.696;2023-05-27T08:41:52;19.53;;;6.40;;
22967;SDS011;11650;48.106;-1.696;2023-05-27T08:44:20;27.93;;;7.10;;
22967;SDS011;11650;48.106;-1.696;2023-05-27T08:46:47;20.77;;;6.70;;
22967;SDS011;11650;48.106;-1.696;2023-05-27T08:49:15;18.13;;;6.70;;
22967;SDS011;11650;48.106;-1.696;2023-05-27T08:51:41;21.27;;;7.27;;
22967;SDS011;11650;48.106;-1.696;2023-05-27T08:54:09;20.93;;;6.80;;
22967;SDS011;11650;48.106;-1.696;2023-05-27T08:56:35;21.47;;;6.83;;
22967;SDS011;11650;48.106;-1.696;2023-05-27T08:59:02;25.77;;;7.00;;
22967;SDS011;11650;48.106;-1.696;2023-05-27T09:01:28;17.10;;;6.97;;
22967;SDS011;11650;48.106;-1.696;2023-05-27T09:03:55;24.40;;;7.07;;
22967;SDS011;11650;48.106;-1.696;2023-05-27T09:06:21;22.03;;;7.10;;
22967;SDS011;11650;48.106;-1.696;2023-05-27T09:08:47;22.30;;;7.40;;
22967;SDS011;11650;48.106;-1.696;2023-05-27T09:11:23;20.53;;;7.43;;
22967;SDS011;11650;48.106;-1.696;2023-05-27T09:13:52;25.07;;;7.37;;
22967;SDS011;11650;48.106;-1.696;2023-05-27T09:16:21;18.97;;;6.73;;
22967;SDS011;11650;48.106;-1.696;2023-05-27T09:18:47;27.43;;;7.57;;
22967;SDS011;11650;48.106;-1.696;2023-05-27T09:21:14;23.20;;;7.47;;
22967;SDS011;11650;48.106;-1.696;2023-05-27T09:23:40;20.30;;;7.20;;
22967;SDS011;11650;48.106;-1.696;2023-05-27T09:26:08;25.97;;;8.00;;
22967;SDS011;11650;48.106;-1.696;2023-05-27T09:28:37;24.17;;;8.30;;
22967;SDS011;11650;48.106;-1.696;2023-05-27T09:31:06;25.97;;;7.47;;
22967;SDS011;11650;48.106;-1.696;2023-05-27T09:33:37;25.00;;;7.53;;
22967;SDS011;11650;48.106;-1.696;2023-05-27T09:36:05;28.30;;;8.03;;
22967;SDS011;11650;48.106;-1.696;2023-05-27T09:38:32;23.83;;;7.20;;
22967;SDS011;11650;48.106;-1.696;2023-05-27T09:40:59;22.57;;;7.53;;
22967;SDS011;11650;48.106;-1.696;2023-05-27T09:43:26;23.20;;;7.23;;
22967;SDS011;11650;48.106;-1.696;2023-05-27T09:45:53;22.63;;;7.93;;
22967;SDS011;11650;48.106;-1.696;2023-05-27T09:48:29;19.53;;;6.73;;
22967;SDS011;11650;48.106;-1.696;2023-05-27T09:50:56;23.33;;;7.43;;
22967;SDS011;11650;48.106;-1.696;2023-05-27T09:53:23;19.77;;;7.87;;
22967;SDS011;11650;48.106;-1.696;2023-05-27T09:55:50;25.20;;;8.20;;
22967;SDS011;11650;48.106;-1.696;2023-05-27T09:58:18;20.50;;;7.10;;
22967;SDS011;11650;48.106;-1.696;2023-05-27T10:00:45;19.57;;;7.27;;
22967;SDS011;11650;48.106;-1.696;2023-05-27T10:03:12;21.23;;;6.73;;
22967;SDS011;11650;48.106;-1.696;2023-05-27T10:05:39;21.23;;;7.27;;
22967;SDS011;11650;48.106;-1.696;2023-05-27T10:08:05;25.37;;;7.33;;
22967;SDS011;11650;48.106;-1.696;2023-05-27T10:10:31;24.63;;;7.53;;
22967;SDS011;11650;48.106;-1.696;2023-05-27T10:12:57;29.27;;;8.27;;
22967;SDS011;11650;48.106;-1.696;2023-05-27T10:15:31;26.40;;;7.03;;
22967;SDS011;11650;48.106;-1.696;2023-05-27T10:18:06;28.17;;;7.57;;
22967;SDS011;11650;48.106;-1.696;2023-05-27T10:25:40;22.33;;;6.87;;
22967;SDS011;11650;48.106;-1.696;2023-05-27T10:28:11;19.33;;;6.63;;
22967;SDS011;11650;48.106;-1.696;2023-05-27T10:30:47;22.97;;;6.80;;
22967;SDS011;11650;48.106;-1.696;2023-05-27T10:33:13;24.80;;;7.20;;
22967;SDS011;11650;48.106;-1.696;2023-05-27T10:35:39;18.77;;;7.40;;
22967;SDS011;11650;48.106;-1.696;2023-05-27T10:38:16;25.73;;;7.37;;
22967;SDS011;11650;48.106;-1.696;2023-05-27T10:40:43;20.97;;;7.33;;
22967;SDS011;11650;48.106;-1.696;2023-05-27T10:43:17;21.77;;;7.23;;
22967;SDS011;11650;48.106;-1.696;2023-05-27T10:45:43;22.20;;;7.37;;
22967;SDS011;11650;48.106;-1.696;2023-05-27T10:48:17;22.23;;;6.93;;
22967;SDS011;11650;48.106;-1.696;2023-05-27T10:50:50;23.27;;;6.63;;
22967;SDS011;11650;48.106;-1.696;2023-05-27T10:53:22;18.83;;;6.90;;
22967;SDS011;11650;48.106;-1.696;2023-05-27T10:55:48;22.07;;;7.23;;
22967;SDS011;11650;48.106;-1.696;2023-05-27T10:58:16;17.47;;;6.47;;
22967;SDS011;11650;48.106;-1.696;2023-05-27T11:00:42;23.60;;;6.53;;
22967;SDS011;11650;48.106;-1.696;2023-05-27T11:03:20;20.60;;;7.00;;
22967;SDS011;11650;48.106;-1.696;2023-05-27T11:05:47;18.27;;;6.67;;
22967;SDS011;11650;48.106;-1.696;2023-05-27T11:08:22;17.93;;;7.17;;
22967;SDS011;11650;48.106;-1.696;2023-05-27T11:10:48;20.30;;;6.90;;
22967;SDS011;11650;48.106;-1.696;2023-05-27T11:13:13;14.87;;;6.23;;
22967;SDS011;11650;48.106;-1.696;2023-05-27T11:15:39;18.63;;;6.00;;
22967;SDS011;11650;48.106;-1.696;2023-05-27T11:18:07;15.57;;;6.07;;
22967;SDS011;11650;48.106;-1.696;2023-05-27T11:20:34;16.83;;;6.20;;
22967;SDS011;11650;48.106;-1.696;2023-05-27T11:23:00;17.87;;;6.80;;
22967;SDS011;11650;48.106;-1.696;2023-05-27T11:25:26;14.93;;;5.97;;
22967;SDS011;11650;48.106;-1.696;2023-05-27T11:27:52;18.37;;;6.33;;
22967;SDS011;11650;48.106;-1.696;2023-05-27T11:30:18;15.00;;;6.43;;
22967;SDS011;11650;48.106;-1.696;2023-05-27T11:32:49;15.80;;;6.07;;
22967;SDS011;11650;48.106;-1.696;2023-05-27T11:35:18;19.07;;;6.37;;
22967;SDS011;11650;48.106;-1.696;2023-05-27T11:37:45;16.93;;;6.27;;
22967;SDS011;11650;48.106;-1.696;2023-05-27T11:40:20;15.20;;;5.97;;
22967;SDS011;11650;48.106;-1.696;2023-05-27T11:42:46;18.37;;;6.40;;
22967;SDS011;11650;48.106;-1.696;2023-05-27T11:45:16;16.10;;;6.13;;
22967;SDS011;11650;48.106;-1.696;2023-05-27T11:47:43;20.73;;;6.80;;
22967;SDS011;11650;48.106;-1.696;2023-05-27T11:50:10;20.87;;;6.73;;
22967;SDS011;11650;48.106;-1.696;2023-05-27T11:52:46;19.87;;;6.37;;
22967;SDS011;11650;48.106;-1.696;2023-05-27T11:55:22;16.50;;;6.27;;
22967;SDS011;11650;48.106;-1.696;2023-05-27T11:57:48;14.37;;;6.00;;
22967;SDS011;11650;48.106;-1.696;2023-05-27T12:00:14;19.47;;;6.13;;
22967;SDS011;11650;48.106;-1.696;2023-05-27T12:02:41;16.90;;;6.03;;
22967;SDS011;11650;48.106;-1.696;2023-05-27T12:05:07;15.47;;;6.20;;
22967;SDS011;11650;48.106;-1.696;2023-05-27T12:07:34;21.33;;;6.80;;
22967;SDS011;11650;48.106;-1.696;2023-05-27T12:10:00;17.17;;;6.77;;
22967;SDS011;11650;48.106;-1.696;2023-05-27T12:12:26;13.40;;;5.57;;
22967;SDS011;11650;48.106;-1.696;2023-05-27T12:14:52;13.15;;;5.35;;
22967;SDS011;11650;48.106;-1.696;2023-05-27T12:17:18;14.35;;;6.53;;
22967;SDS011;11650;48.106;-1.696;2023-05-27T12:19:45;14.65;;;5.55;;
22967;SDS011;11650;48.106;-1.696;2023-05-27T12:22:11;16.20;;;6.28;;
22967;SDS011;11650;48.106;-1.696;2023-05-27T12:24:37;14.57;;;5.63;;
22967;SDS011;11650;48.106;-1.696;2023-05-27T12:27:02;13.32;;;6.05;;
22967;SDS011;11650;48.106;-1.696;2023-05-27T12:29:28;11.68;;;5.53;;
22967;SDS011;11650;48.106;-1.696;2023-05-27T12:31:55;15.05;;;5.68;;
22967;SDS011;11650;48.106;-1.696;2023-05-27T12:34:21;15.20;;;5.32;;
22967;SDS011;11650;48.106;-1.696;2023-05-27T12:36:47;18.58;;;5.95;;
22967;SDS011;11650;48.106;-1.696;2023-05-27T12:39:12;12.23;;;5.40;;
22967;SDS011;11650;48.106;-1.696;2023-05-27T12:41:38;12.68;;;5.45;;
22967;SDS011;11650;48.106;-1.696;2023-05-27T12:44:04;10.57;;;5.75;;
22967;SDS011;11650;48.106;-1.696;2023-05-27T12:46:29;12.85;;;5.35;;
22967;SDS011;11650;48.106;-1.696;2023-05-27T12:48:55;12.05;;;5.07;;
22967;SDS011;11650;48.106;-1.696;2023-05-27T12:51:21;12.05;;;5.28;;
22967;SDS011;11650;48.106;-1.696;2023-05-27T12:53:47;11.88;;;5.78;;
22967;SDS011;11650;48.106;-1.696;2023-05-27T12:56:13;13.55;;;5.35;;
22967;SDS011;11650;48.106;-1.696;2023-05-27T12:58:38;11.70;;;5.35;;
22967;SDS011;11650;48.106;-1.696;2023-05-27T13:01:04;12.52;;;5.28;;
22967;SDS011;11650;48.106;-1.696;2023-05-27T13:03:30;11.25;;;5.25;;
22967;SDS011;11650;48.106;-1.696;2023-05-27T13:05:56;12.18;;;5.45;;
22967;SDS011;11650;48.106;-1.696;2023-05-27T13:08:23;13.85;;;5.47;;
22967;SDS011;11650;48.106;-1.696;2023-05-27T13:10:49;12.32;;;5.35;;
22967;SDS011;11650;48.106;-1.696;2023-05-27T13:13:15;14.93;;;5.28;;
22967;SDS011;11650;48.106;-1.696;2023-05-27T13:15:40;11.80;;;5.30;;
22967;SDS011;11650;48.106;-1.696;2023-05-27T13:18:06;12.18;;;6.00;;
22967;SDS011;11650;48.106;-1.696;2023-05-27T13:20:34;11.70;;;5.35;;
22967;SDS011;11650;48.106;-1.696;2023-05-27T13:23:00;10.77;;;5.47;;
22967;SDS011;11650;48.106;-1.696;2023-05-27T13:25:27;10.15;;;4.70;;
22967;SDS011;11650;48.106;-1.696;2023-05-27T13:27:56;10.00;;;5.10;;
22967;SDS011;11650;48.106;-1.696;2023-05-27T13:30:22;14.57;;;5.43;;
22967;SDS011;11650;48.106;-1.696;2023-05-27T13:32:48;14.45;;;5.78;;
22967;SDS011;11650;48.106;-1.696;2023-05-27T13:35:14;11.20;;;5.50;;
22967;SDS011;11650;48.106;-1.696;2023-05-27T13:37:40;9.85;;;4.97;;
22967;SDS011;11650;48.106;-1.696;2023-05-27T13:40:07;9.18;;;4.72;;
22967;SDS011;11650;48.106;-1.696;2023-05-27T13:42:33;12.90;;;5.45;;
22967;SDS011;11650;48.106;-1.696;2023-05-27T13:44:59;10.45;;;5.03;;
22967;SDS011;11650;48.106;-1.696;2023-05-27T13:47:25;9.40;;;5.43;;
22967;SDS011;11650;48.106;-1.696;2023-05-27T13:49:51;12.32;;;5.30;;
22967;SDS011;11650;48.106;-1.696;2023-05-27T13:52:16;10.57;;;5.10;;
22967;SDS011;11650;48.106;-1.696;2023-05-27T13:54:42;11.60;;;5.20;;
22967;SDS011;11650;48.106;-1.696;2023-05-27T13:57:08;12.25;;;5.03;;
22967;SDS011;11650;48.106;-1.696;2023-05-27T13:59:33;12.00;;;5.05;;
22967;SDS011;11650;48.106;-1.696;2023-05-27T14:01:59;11.82;;;5.78;;
22967;SDS011;11650;48.106;-1.696;2023-05-27T14:04:30;7.45;;;4.60;;
22967;SDS011;11650;48.106;-1.696;2023-05-27T14:06:59;10.35;;;5.30;;
22967;SDS011;11650;48.106;-1.696;2023-05-27T14:09:24;13.43;;;5.47;;
22967;SDS011;11650;48.106;-1.696;2023-05-27T14:11:50;11.13;;;5.50;;
22967;SDS011;11650;48.106;-1.696;2023-05-27T14:14:16;11.43;;;5.47;;
22967;SDS011;11650;48.106;-1.696;2023-05-27T14:16:41;8.40;;;4.63;;
22967;SDS011;11650;48.106;-1.696;2023-05-27T14:19:07;14.57;;;4.75;;
22967;SDS011;11650;48.106;-1.696;2023-05-27T14:21:33;9.57;;;4.78;;
22967;SDS011;11650;48.106;-1.696;2023-05-27T14:23:59;9.68;;;4.60;;
22967;SDS011;11650;48.106;-1.696;2023-05-27T14:26:25;9.43;;;6.13;;
22967;SDS011;11650;48.106;-1.696;2023-05-27T14:28:51;11.18;;;5.15;;
22967;SDS011;11650;48.106;-1.696;2023-05-27T14:31:17;8.95;;;4.70;;